createdAt,value
2022-08-07T00:01:44.490Z,75.58
2022-08-07T00:04:15.394Z,75.55
2022-08-07T00:06:51.300Z,75.47
2022-08-07T00:09:35.717Z,75.34
2022-08-07T00:12:04.587Z,75.40
2022-08-07T00:14:32.758Z,75.39
2022-08-07T00:17:02.563Z,75.40
2022-08-07T00:19:59.737Z,75.45
2022-08-07T00:22:24.470Z,75.16
2022-08-07T00:25:11.122Z,75.29
2022-08-07T00:27:52.492Z,75.45
2022-08-07T00:30:27.313Z,75.25
2022-08-07T00:32:58.511Z,75.03
2022-08-07T00:35:29.606Z,75.10
2022-08-07T00:37:59.753Z,74.98
2022-08-07T00:40:39.896Z,74.97
2022-08-07T00:43:59.298Z,75.12
2022-08-07T00:46:04.900Z,74.84
2022-08-07T00:48:36.566Z,74.94
2022-08-07T00:51:10.859Z,74.79
2022-08-07T00:53:50.121Z,74.84
2022-08-07T00:56:30.277Z,74.74
2022-08-07T00:59:02.369Z,74.76
2022-08-07T01:01:41.539Z,74.57
2022-08-07T01:04:24.550Z,74.56
2022-08-07T01:06:53.837Z,74.79
2022-08-07T01:10:04.756Z,74.86
2022-08-07T01:12:43.940Z,74.96
2022-08-07T01:15:36.136Z,74.91
2022-08-07T01:18:17.097Z,74.78
2022-08-07T01:21:02.700Z,74.78
2022-08-07T01:23:38.065Z,74.89
2022-08-07T01:26:13.312Z,74.75
2022-08-07T01:28:48.638Z,74.89
2022-08-07T01:31:41.686Z,74.74
2022-08-07T01:34:14.445Z,74.77
2022-08-07T01:36:45.295Z,74.77
2022-08-07T01:39:26.810Z,74.77
2022-08-07T01:42:38.705Z,74.73
2022-08-07T01:44:59.767Z,74.88
2022-08-07T01:48:19.637Z,74.97
2022-08-07T01:50:29.091Z,75.01
2022-08-07T01:53:00.466Z,74.98
2022-08-07T01:55:36.802Z,74.91
2022-08-07T01:58:27.052Z,75.01
2022-08-07T02:01:25.324Z,75.07
2022-08-07T02:04:10.852Z,75.13
2022-08-07T02:06:43.246Z,75.14
2022-08-07T02:09:53.299Z,75.16
2022-08-07T02:12:17.775Z,74.97
2022-08-07T02:14:57.018Z,74.91
2022-08-07T02:17:39.744Z,74.91
2022-08-07T02:20:17.477Z,74.87
2022-08-07T02:22:55.328Z,74.99
2022-08-07T02:26:31.177Z,74.88
2022-08-07T02:28:29.513Z,74.83
2022-08-07T02:31:10.247Z,74.79
2022-08-07T02:34:02.955Z,75.16
2022-08-07T02:36:37.411Z,75.20
2022-08-07T02:39:42.963Z,75.00
2022-08-07T02:42:10.334Z,74.96
2022-08-07T02:44:48.405Z,75.08
2022-08-07T02:47:23.323Z,75.27
2022-08-07T02:49:57.826Z,74.96
2022-08-07T02:52:52.889Z,74.94
2022-08-07T02:55:28.524Z,74.84
2022-08-07T02:58:21.582Z,75.07
2022-08-07T03:00:55.072Z,75.24
2022-08-07T03:03:29.584Z,75.19
2022-08-07T03:06:25.579Z,75.25
2022-08-07T03:09:11.150Z,75.19
2022-08-07T03:11:51.961Z,75.14
2022-08-07T03:14:27.722Z,75.32
2022-08-07T03:16:57.204Z,75.29
2022-08-07T03:19:28.856Z,75.30
2022-08-07T03:21:59.121Z,75.35
2022-08-07T03:24:30.712Z,75.33
2022-08-07T03:27:05.003Z,75.24
2022-08-07T03:29:51.019Z,75.27
2022-08-07T03:32:30.533Z,75.36
2022-08-07T03:35:17.413Z,75.44
2022-08-07T03:37:55.287Z,75.46
2022-08-07T03:40:27.544Z,75.51
2022-08-07T03:43:13.820Z,75.63
2022-08-07T03:45:47.580Z,75.74
2022-08-07T03:48:18.681Z,75.81
2022-08-07T03:50:55.960Z,75.85
2022-08-07T03:53:30.318Z,75.88
2022-08-07T03:56:32.461Z,76.22
2022-08-07T03:59:12.815Z,76.36
2022-08-07T04:01:45.878Z,76.35
2022-08-07T04:04:18.819Z,76.56
2022-08-07T04:06:51.961Z,76.67
2022-08-07T04:09:23.221Z,76.79
2022-08-07T04:12:27.062Z,76.83
2022-08-07T04:14:43.822Z,76.87
2022-08-07T04:17:20.772Z,76.84
2022-08-07T04:19:54.225Z,77.13
2022-08-07T04:22:29.572Z,77.32
2022-08-07T04:25:02.184Z,77.57
2022-08-07T04:27:35.902Z,77.67
2022-08-07T04:30:35.768Z,77.97
2022-08-07T04:33:07.358Z,78.18
2022-08-07T04:35:39.381Z,78.29
2022-08-07T04:38:13.377Z,78.49
2022-08-07T04:40:51.595Z,78.51
2022-08-07T04:44:10.151Z,78.61
2022-08-07T04:47:04.269Z,78.65
2022-08-07T04:49:57.561Z,78.77
2022-08-07T04:52:52.485Z,78.75
2022-08-07T04:58:12.864Z,78.89
2022-08-07T04:59:17.426Z,78.75
2022-08-07T05:01:40.955Z,78.83
2022-08-07T05:04:17.943Z,78.71
2022-08-07T05:06:57.057Z,78.59
2022-08-07T05:09:45.780Z,78.39
2022-08-07T05:12:27.376Z,78.78
2022-08-07T05:15:22.979Z,78.56
2022-08-07T05:17:58.438Z,78.35
2022-08-07T05:20:39.568Z,77.94
2022-08-07T05:23:17.173Z,77.89
2022-08-07T05:26:13.581Z,77.46
2022-08-07T05:28:40.512Z,77.65
2022-08-07T05:31:12.804Z,77.55
2022-08-07T05:34:01.356Z,76.98
2022-08-07T05:36:35.988Z,77.09
2022-08-07T05:40:17.843Z,76.82
2022-08-07T05:42:05.325Z,76.81
2022-08-07T05:44:46.398Z,76.69
2022-08-07T05:47:20.911Z,75.94
2022-08-07T05:50:06.757Z,75.44
2022-08-07T05:52:35.010Z,75.22
2022-08-07T05:55:10.951Z,74.60
2022-08-07T05:57:42.826Z,74.22
2022-08-07T06:00:16.266Z,73.98
2022-08-07T06:02:51.837Z,73.83
2022-08-07T06:05:28.201Z,73.52
2022-08-07T06:08:13.570Z,72.96
2022-08-07T06:10:51.361Z,72.93
2022-08-07T06:14:10.810Z,72.81
2022-08-07T06:16:16.337Z,73.07
2022-08-07T06:18:51.533Z,72.59
2022-08-07T06:22:15.814Z,72.16
2022-08-07T06:24:53.032Z,72.06
2022-08-07T06:26:57.499Z,71.94
2022-08-07T06:29:28.173Z,71.44
2022-08-07T06:31:57.692Z,71.29
2022-08-07T06:34:29.785Z,71.43
2022-08-07T06:36:58.955Z,70.81
2022-08-07T06:40:17.252Z,69.67
2022-08-07T06:42:35.101Z,69.38
2022-08-07T06:45:25.038Z,69.35
2022-08-07T06:47:59.785Z,68.68
2022-08-07T06:50:36.450Z,67.53
2022-08-07T06:53:49.298Z,67.33
2022-08-07T06:56:01.561Z,66.49
2022-08-07T06:58:35.687Z,65.26
2022-08-07T07:01:10.819Z,65.81
2022-08-07T07:03:49.980Z,65.50
2022-08-07T07:06:26.580Z,65.25
2022-08-07T07:08:56.959Z,64.92
2022-08-07T07:12:08.442Z,64.49
2022-08-07T07:14:24.649Z,63.52
2022-08-07T07:16:58.768Z,63.13
2022-08-07T07:19:55.948Z,62.74
2022-08-07T07:22:34.025Z,62.56
2022-08-07T07:26:32.287Z,61.73
2022-08-07T07:28:29.621Z,60.86
2022-08-07T07:31:17.164Z,60.09
2022-08-07T07:33:57.053Z,59.13
2022-08-07T07:36:32.219Z,58.67
2022-08-07T07:39:03.633Z,57.87
2022-08-07T07:42:02.278Z,58.68
2022-08-07T07:44:26.711Z,57.94
2022-08-07T07:47:04.387Z,57.68
2022-08-07T07:50:34.582Z,57.79
2022-08-07T07:52:37.888Z,57.02
2022-08-07T07:55:10.932Z,56.44
2022-08-07T07:57:50.331Z,55.94
2022-08-07T08:00:29.013Z,56.66
2022-08-07T08:03:08.818Z,56.62
2022-08-07T08:05:53.817Z,56.16
2022-08-07T08:08:35.744Z,55.19
2022-08-07T08:11:08.452Z,54.54
2022-08-07T08:13:50.810Z,53.58
2022-08-07T08:16:50.445Z,53.21
2022-08-07T08:20:15.931Z,53.21
2022-08-07T08:22:33.811Z,53.06
2022-08-07T08:25:27.002Z,51.74
2022-08-07T08:28:16.699Z,52.23
2022-08-07T08:30:59.190Z,51.79
2022-08-07T08:33:35.131Z,52.02
2022-08-07T08:36:05.207Z,51.23
2022-08-07T08:38:41.151Z,51.49
2022-08-07T08:41:58.475Z,51.07
2022-08-07T08:44:44.935Z,51.65
2022-08-07T08:48:04.350Z,51.11
2022-08-07T08:50:40.111Z,50.73
2022-08-07T08:53:35.335Z,50.90
2022-08-07T08:56:24.701Z,51.65
2022-08-07T08:59:06.410Z,51.71
2022-08-07T09:01:59.724Z,50.65
2022-08-07T09:04:47.128Z,50.00
2022-08-07T09:07:26.627Z,49.96
2022-08-07T09:09:59.895Z,50.17
2022-08-07T09:12:53.674Z,49.06
2022-08-07T09:16:23.337Z,48.51
2022-08-07T09:18:58.674Z,48.17
2022-08-07T09:22:09.635Z,48.29
2022-08-07T09:24:58.920Z,48.68
2022-08-07T09:27:31.187Z,50.26
2022-08-07T09:30:10.424Z,50.31
2022-08-07T09:32:57.935Z,49.20
2022-08-07T09:36:03.158Z,49.37
2022-08-07T09:38:54.839Z,48.88
2022-08-07T09:41:58.474Z,49.23
2022-08-07T09:47:26.046Z,50.10
2022-08-07T09:48:00.102Z,49.07
2022-08-07T09:52:10.906Z,48.91
2022-08-07T09:54:07.999Z,47.30
2022-08-07T09:57:03.720Z,46.98
2022-08-07T10:00:00.712Z,47.23
2022-08-07T10:02:57.286Z,47.83
2022-08-07T10:05:59.770Z,46.94
2022-08-07T10:09:42.790Z,46.66
2022-08-07T10:12:34.545Z,46.28
2022-08-07T10:15:44.507Z,46.07
2022-08-07T10:18:26.325Z,46.16
2022-08-07T10:22:14.756Z,44.99
2022-08-07T10:24:33.302Z,44.65
2022-08-07T10:27:06.649Z,45.60
2022-08-07T10:30:00.660Z,46.09
2022-08-07T10:32:53.091Z,44.12
2022-08-07T10:35:55.288Z,44.27
2022-08-07T10:38:51.448Z,44.26
2022-08-07T10:41:46.473Z,43.74
2022-08-07T10:44:33.904Z,43.69
2022-08-07T10:47:51.639Z,43.53
2022-08-07T10:50:31.830Z,43.42
2022-08-07T10:53:26.525Z,43.91
2022-08-07T10:56:11.120Z,44.08
2022-08-07T10:59:06.043Z,43.94
2022-08-07T11:02:32.805Z,43.84
2022-08-07T11:06:18.180Z,43.81
2022-08-07T11:08:55.028Z,43.38
2022-08-07T11:11:35.793Z,43.05
2022-08-07T11:14:45.967Z,42.37
2022-08-07T11:17:07.256Z,42.26
2022-08-07T11:19:58.738Z,42.95
2022-08-07T11:22:45.987Z,42.09
2022-08-07T11:25:23.775Z,40.95
2022-08-07T11:28:06.794Z,41.24
2022-08-07T11:30:45.562Z,41.46
2022-08-07T11:33:54.331Z,41.17
2022-08-07T11:36:38.399Z,41.43
2022-08-07T11:39:19.749Z,42.43
2022-08-07T11:42:19.852Z,42.26
2022-08-07T11:45:00.555Z,42.29
2022-08-07T11:47:56.340Z,43.01
2022-08-07T11:50:44.222Z,41.92
2022-08-07T11:54:00.567Z,42.17
2022-08-07T11:56:56.114Z,41.86
2022-08-07T12:00:10.622Z,42.54
2022-08-07T12:03:01.216Z,42.10
2022-08-07T12:05:49.881Z,40.85
2022-08-07T12:08:38.192Z,41.42
2022-08-07T12:11:43.459Z,42.08
2022-08-07T12:14:32.488Z,41.87
2022-08-07T12:17:08.928Z,40.54
2022-08-07T12:20:30.160Z,39.97
2022-08-07T12:26:22.651Z,40.78
2022-08-07T12:29:09.260Z,40.69
2022-08-07T12:32:03.845Z,41.24
2022-08-07T12:34:37.318Z,41.33
2022-08-07T12:37:08.768Z,41.01
2022-08-07T12:39:58.814Z,41.14
2022-08-07T12:42:32.054Z,41.10
2022-08-07T12:45:22.722Z,40.38
2022-08-07T12:48:27.498Z,39.52
2022-08-07T12:51:13.006Z,38.72
2022-08-07T12:54:23.971Z,37.85
2022-08-07T12:56:50.852Z,37.48
2022-08-07T12:59:22.703Z,37.94
2022-08-07T13:02:13.608Z,37.95
2022-08-07T13:05:06.327Z,39.61
2022-08-07T13:08:29.369Z,40.31
2022-08-07T13:11:09.610Z,40.02
2022-08-07T13:14:09.249Z,40.24
2022-08-07T13:17:06.007Z,39.90
2022-08-07T13:19:50.851Z,39.36
2022-08-07T13:22:34.298Z,38.78
2022-08-07T13:25:29.594Z,39.11
2022-08-07T13:28:13.516Z,38.55
2022-08-07T13:31:02.108Z,38.32
2022-08-07T13:34:34.475Z,39.13
2022-08-07T13:37:10.551Z,39.11
2022-08-07T13:40:34.048Z,39.61
2022-08-07T13:43:11.999Z,39.85
2022-08-07T13:46:10.764Z,40.13
2022-08-07T13:48:35.014Z,39.64
2022-08-07T13:51:28.295Z,40.01
2022-08-07T13:54:06.207Z,40.77
2022-08-07T13:56:41.196Z,40.69
2022-08-07T13:59:31.602Z,41.11
2022-08-07T14:02:15.308Z,40.65
2022-08-07T14:04:55.110Z,40.70
2022-08-07T14:07:27.818Z,40.92
2022-08-07T14:10:02.249Z,40.31
2022-08-07T14:12:58.632Z,40.12
2022-08-07T14:15:40.141Z,40.26
2022-08-07T14:18:31.377Z,39.91
2022-08-07T14:21:07.854Z,39.84
2022-08-07T14:24:01.197Z,39.79
2022-08-07T14:26:50.499Z,39.69
2022-08-07T14:30:09.434Z,39.70
2022-08-07T14:32:13.368Z,39.91
2022-08-07T14:34:46.414Z,39.24
2022-08-07T14:37:32.967Z,39.91
2022-08-07T14:40:17.799Z,40.34
2022-08-07T14:43:55.143Z,39.53
2022-08-07T14:46:01.948Z,39.49
2022-08-07T14:48:34.645Z,39.27
2022-08-07T14:51:18.073Z,38.98
2022-08-07T14:54:30.221Z,39.04
2022-08-07T14:56:41.716Z,39.07
2022-08-07T14:59:14.030Z,39.01
2022-08-07T15:02:32.914Z,38.70
2022-08-07T15:07:51.278Z,39.26
2022-08-07T15:10:26.039Z,39.60
2022-08-07T15:12:59.870Z,39.41
2022-08-07T15:15:52.806Z,39.44
2022-08-07T15:18:33.868Z,39.31
2022-08-07T15:21:44.205Z,39.34
2022-08-07T15:26:59.711Z,39.70
2022-08-07T15:30:08.694Z,40.73
2022-08-07T15:32:39.184Z,41.07
2022-08-07T15:35:16.934Z,41.28
2022-08-07T15:38:17.937Z,41.39
2022-08-07T15:40:48.943Z,42.38
2022-08-07T15:46:31.833Z,43.25
2022-08-07T15:49:15.147Z,42.99
2022-08-07T15:54:39.667Z,41.85
2022-08-07T15:57:40.306Z,40.99
2022-08-07T16:00:06.693Z,41.14
2022-08-07T16:02:47.631Z,41.40
2022-08-07T16:05:19.773Z,41.08
2022-08-07T16:08:32.013Z,41.41
2022-08-07T16:10:48.784Z,41.07
2022-08-07T16:13:39.614Z,41.74
2022-08-07T16:16:47.735Z,41.62
2022-08-07T16:19:59.526Z,40.79
2022-08-07T16:22:37.771Z,40.85
2022-08-07T16:25:22.772Z,41.00
2022-08-07T16:29:18.326Z,41.08
2022-08-07T16:31:57.959Z,41.33
2022-08-07T16:34:51.159Z,41.62
2022-08-07T16:38:05.497Z,41.50
2022-08-07T16:40:33.434Z,41.91
2022-08-07T16:43:11.183Z,41.96
2022-08-07T16:47:07.609Z,42.00
2022-08-07T16:50:26.772Z,41.89
2022-08-07T16:52:50.074Z,43.06
2022-08-07T16:55:22.219Z,43.41
2022-08-07T16:58:04.114Z,43.82
2022-08-07T17:00:53.702Z,44.40
2022-08-07T17:03:58.447Z,44.79
2022-08-07T17:06:46.527Z,44.55
2022-08-07T17:10:05.965Z,44.53
2022-08-07T17:12:53.186Z,44.79
2022-08-07T17:15:44.605Z,45.32
2022-08-07T17:18:32.214Z,46.46
2022-08-07T17:21:02.958Z,46.74
2022-08-07T17:23:47.139Z,46.86
2022-08-07T17:26:23.898Z,47.14
2022-08-07T17:29:06.382Z,47.98
2022-08-07T17:32:02.716Z,48.77
2022-08-07T17:35:41.439Z,49.66
2022-08-07T17:38:05.539Z,49.99
2022-08-07T17:42:02.664Z,50.14
2022-08-07T17:44:15.603Z,50.86
2022-08-07T17:47:37.965Z,51.35
2022-08-07T17:50:22.894Z,52.12
2022-08-07T17:54:01.767Z,52.54
2022-08-07T17:56:31.142Z,52.83
2022-08-07T17:59:10.934Z,53.32
2022-08-07T18:02:00.746Z,53.54
2022-08-07T18:04:49.188Z,53.93
2022-08-07T18:07:34.436Z,54.41
2022-08-07T18:10:32.148Z,54.86
2022-08-07T18:13:01.224Z,55.20
2022-08-07T18:15:40.628Z,55.39
2022-08-07T18:18:44.649Z,55.77
2022-08-07T18:21:40.208Z,56.22
2022-08-07T18:24:33.364Z,56.46
2022-08-07T18:27:21.881Z,56.94
2022-08-07T18:30:07.391Z,57.21
2022-08-07T18:33:15.489Z,57.64
2022-08-07T18:36:14.873Z,57.77
2022-08-07T18:39:01.197Z,58.03
2022-08-07T18:42:13.083Z,58.38
2022-08-07T18:48:04.616Z,59.21
2022-08-07T18:50:47.375Z,59.29
2022-08-07T18:53:39.843Z,59.41
2022-08-07T18:56:08.551Z,59.56
2022-08-07T18:59:05.507Z,59.84
2022-08-07T19:02:18.187Z,60.05
2022-08-07T19:05:14.938Z,60.57
2022-08-07T19:08:07.449Z,60.45
2022-08-07T19:10:51.878Z,60.47
2022-08-07T19:13:28.753Z,60.49
2022-08-07T19:17:00.489Z,60.47
2022-08-07T19:19:08.417Z,60.76
2022-08-07T19:21:58.583Z,60.92
2022-08-07T19:24:44.596Z,60.91
2022-08-07T19:28:57.948Z,61.22
2022-08-07T19:31:05.608Z,61.48
2022-08-07T19:33:12.878Z,61.56
2022-08-07T19:35:51.575Z,62.07
2022-08-07T19:38:21.612Z,62.28
2022-08-07T19:40:56.120Z,62.51
2022-08-07T19:43:43.770Z,62.52
2022-08-07T19:46:26.788Z,63.01
2022-08-07T19:49:06.273Z,62.88
2022-08-07T19:51:52.591Z,63.10
2022-08-07T19:54:31.100Z,63.24
2022-08-07T19:58:02.673Z,63.25
2022-08-07T20:00:08.909Z,63.13
2022-08-07T20:02:52.219Z,63.42
2022-08-07T20:05:28.123Z,63.48
2022-08-07T20:08:07.271Z,63.50
2022-08-07T20:10:52.032Z,63.67
2022-08-07T20:13:37.517Z,63.93
2022-08-07T20:16:34.840Z,63.81
2022-08-07T20:19:11.687Z,63.97
2022-08-07T20:21:47.714Z,64.01
2022-08-07T20:24:23.525Z,64.25
2022-08-07T20:27:02.024Z,64.47
2022-08-07T20:29:48.402Z,64.62
2022-08-07T20:32:40.250Z,64.72
2022-08-07T20:35:16.262Z,64.86
2022-08-07T20:37:57.701Z,64.93
2022-08-07T20:40:35.285Z,65.01
2022-08-07T20:43:19.478Z,65.34
2022-08-07T20:46:27.239Z,65.36
2022-08-07T20:49:54.074Z,65.20
2022-08-07T20:51:35.926Z,65.52
2022-08-07T20:54:12.084Z,65.70
2022-08-07T20:56:52.913Z,65.85
2022-08-07T21:00:04.861Z,66.01
2022-08-07T21:02:35.557Z,66.20
2022-08-07T21:05:16.632Z,66.26
2022-08-07T21:07:49.943Z,66.64
2022-08-07T21:10:29.468Z,66.46
2022-08-07T21:13:03.714Z,66.69
2022-08-07T21:15:58.107Z,66.78
2022-08-07T21:18:41.283Z,66.91
2022-08-07T21:21:17.499Z,67.13
2022-08-07T21:24:03.751Z,67.10
2022-08-07T21:26:46.632Z,67.28
2022-08-07T21:29:38.128Z,67.44
2022-08-07T21:32:47.866Z,67.50
2022-08-07T21:35:34.713Z,67.62
2022-08-07T21:38:33.159Z,67.57
2022-08-07T21:41:22.588Z,67.86
2022-08-07T21:44:03.655Z,67.95
2022-08-07T21:46:42.077Z,67.85
2022-08-07T21:49:21.084Z,67.92
2022-08-07T21:52:06.203Z,67.96
2022-08-07T21:55:27.942Z,68.27
2022-08-07T21:58:30.204Z,68.57
2022-08-07T22:01:13.917Z,68.42
2022-08-07T22:03:51.760Z,68.43
2022-08-07T22:06:30.565Z,68.48
2022-08-07T22:09:07.068Z,68.63
2022-08-07T22:12:05.913Z,68.65
2022-08-07T22:14:38.955Z,68.76
2022-08-07T22:17:36.107Z,68.82
2022-08-07T22:20:23.991Z,68.71
2022-08-07T22:22:59.921Z,68.90
2022-08-07T22:25:46.420Z,69.13
2022-08-07T22:28:48.294Z,69.16
2022-08-07T22:32:06.078Z,69.16
2022-08-07T22:34:53.142Z,69.34
2022-08-07T22:38:05.343Z,69.52
2022-08-07T22:40:51.405Z,69.54
2022-08-07T22:43:43.769Z,69.45
2022-08-07T22:46:47.248Z,69.50
2022-08-07T22:49:33.921Z,69.51
2022-08-07T22:52:10.175Z,69.68
2022-08-07T22:55:17.297Z,69.60
2022-08-07T22:58:12.701Z,69.95
2022-08-07T23:01:06.771Z,69.98
2022-08-07T23:03:57.560Z,70.01
2022-08-07T23:06:42.425Z,70.05
2022-08-07T23:10:00.804Z,70.11
2022-08-07T23:12:49.272Z,70.08
2022-08-07T23:16:04.377Z,70.04
2022-08-07T23:18:25.781Z,70.18
2022-08-07T23:21:16.367Z,70.19
2022-08-07T23:24:11.993Z,70.16
2022-08-07T23:27:11.164Z,70.38
2022-08-07T23:30:38.523Z,70.49
2022-08-07T23:34:35.253Z,70.60
2022-08-07T23:36:32.605Z,70.68
2022-08-07T23:39:55.637Z,70.72
2022-08-07T23:42:45.848Z,70.76
2022-08-07T23:45:33.535Z,70.71
2022-08-07T23:48:41.094Z,70.77
2022-08-07T23:53:01.141Z,70.80
2022-08-07T23:54:35.892Z,70.78
2022-08-07T23:57:23.783Z,70.84
